createdAt,value
2017-01-25T00:00:43.251Z,1025.2
2017-01-25T00:01:54.193Z,1025.18
2017-01-25T00:03:04.914Z,1025.17
2017-01-25T00:04:15.645Z,1025.24
2017-01-25T00:05:26.395Z,1025.22
2017-01-25T00:06:37.117Z,1025.22
2017-01-25T00:07:47.860Z,1025.28
2017-01-25T00:08:58.602Z,1025.22
2017-01-25T00:10:09.344Z,1025.22
2017-01-25T00:11:20.097Z,1025.27
2017-01-25T00:12:30.839Z,1025.24
2017-01-25T00:13:41.592Z,1025.22
2017-01-25T00:14:52.306Z,1025.26
2017-01-25T00:16:03.020Z,1025.25
2017-01-25T00:17:13.775Z,1025.27
2017-01-25T00:18:24.490Z,1025.22
2017-01-25T00:19:35.217Z,1025.19
2017-01-25T00:20:45.954Z,1025.27
2017-01-25T00:21:56.685Z,1025.19
2017-01-25T00:23:07.432Z,1025.2
2017-01-25T00:24:18.169Z,1025.2
2017-01-25T00:25:29.153Z,1025.29
2017-01-25T00:26:39.893Z,1025.28
2017-01-25T00:27:50.612Z,1025.31
2017-01-25T00:29:01.300Z,1025.3
2017-01-25T00:30:12.032Z,1025.3
2017-01-25T00:31:22.770Z,1025.29
2017-01-25T00:32:33.500Z,1025.32
2017-01-25T00:33:44.241Z,1025.32
2017-01-25T00:34:54.958Z,1025.29
2017-01-25T00:36:05.708Z,1025.3
2017-01-25T00:37:16.425Z,1025.25
2017-01-25T00:38:27.130Z,1025.24
2017-01-25T00:39:37.838Z,1025.25
2017-01-25T00:40:48.539Z,1025.31
2017-01-25T00:41:59.244Z,1025.27
2017-01-25T00:43:09.967Z,1025.29
2017-01-25T00:44:20.701Z,1025.3
2017-01-25T00:45:31.423Z,1025.29
2017-01-25T00:46:42.176Z,1025.25
2017-01-25T00:47:52.916Z,1025.23
2017-01-25T00:49:03.643Z,1025.26
2017-01-25T00:50:14.391Z,1025.25
2017-01-25T00:51:25.160Z,1025.3
2017-01-25T00:52:35.874Z,1025.26
2017-01-25T00:53:46.620Z,1025.2
2017-01-25T00:54:57.591Z,1025.2
2017-01-25T00:56:08.359Z,1025.18
2017-01-25T00:57:19.091Z,1025.2
2017-01-25T00:58:29.808Z,1025.21
2017-01-25T00:59:40.553Z,1025.2
2017-01-25T01:00:51.518Z,1025.23
2017-01-25T01:02:02.250Z,1025.2
2017-01-25T01:03:12.987Z,1025.17
2017-01-25T01:04:23.713Z,1025.17
2017-01-25T01:05:34.459Z,1025.23
2017-01-25T01:06:45.179Z,1025.21
2017-01-25T01:07:55.900Z,1025.25
2017-01-25T01:09:06.651Z,1025.19
2017-01-25T01:10:17.396Z,1025.23
2017-01-25T01:11:28.131Z,1025.2
2017-01-25T01:12:38.854Z,1025.21
2017-01-25T01:13:49.577Z,1025.28
2017-01-25T01:15:00.324Z,1025.27
2017-01-25T01:16:11.075Z,1025.31
2017-01-25T01:17:21.794Z,1025.29
2017-01-25T01:18:32.485Z,1025.3
2017-01-25T01:19:43.210Z,1025.3
2017-01-25T01:20:53.977Z,1025.28
2017-01-25T01:22:04.708Z,1025.32
2017-01-25T01:23:15.442Z,1025.32
2017-01-25T01:24:26.411Z,1025.35
2017-01-25T01:25:37.134Z,1025.32
2017-01-25T01:26:47.857Z,1025.37
2017-01-25T01:27:58.593Z,1025.33
2017-01-25T01:29:09.340Z,1025.28
2017-01-25T01:30:20.071Z,1025.32
2017-01-25T01:31:30.821Z,1025.35
2017-01-25T01:32:41.519Z,1025.33
2017-01-25T01:33:52.259Z,1025.34
2017-01-25T01:35:03.031Z,1025.35
2017-01-25T01:36:13.755Z,1025.41
2017-01-25T01:37:24.879Z,1025.37
2017-01-25T01:38:35.573Z,1025.32
2017-01-25T01:39:46.317Z,1025.28
2017-01-25T01:40:57.031Z,1025.31
2017-01-25T01:42:07.763Z,1025.28
2017-01-25T01:43:18.485Z,1025.29
2017-01-25T01:44:29.220Z,1025.25
2017-01-25T01:45:39.940Z,1025.27
2017-01-25T01:46:50.665Z,1025.27
2017-01-25T01:48:01.382Z,1025.28
2017-01-25T01:49:12.107Z,1025.25
2017-01-25T01:50:22.803Z,1025.29
2017-01-25T01:51:33.520Z,1025.23
2017-01-25T01:52:44.241Z,1025.2
2017-01-25T01:53:55.191Z,1025.2
2017-01-25T01:55:05.916Z,1025.16
2017-01-25T01:56:16.632Z,1025.15
2017-01-25T01:57:27.330Z,1025.09
2017-01-25T01:58:38.023Z,1025.14
2017-01-25T01:59:49.007Z,1025.16
2017-01-25T02:00:59.722Z,1025.17
2017-01-25T02:02:10.444Z,1025.19
2017-01-25T02:03:21.190Z,1025.22
2017-01-25T02:04:31.912Z,1025.27
2017-01-25T02:05:42.648Z,1025.28
2017-01-25T02:06:53.344Z,1025.3
2017-01-25T02:08:04.052Z,1025.36
2017-01-25T02:09:14.792Z,1025.39
2017-01-25T02:10:25.515Z,1025.36
2017-01-25T02:11:36.213Z,1025.35
2017-01-25T02:12:46.932Z,1025.36
2017-01-25T02:13:57.656Z,1025.36
2017-01-25T02:15:08.398Z,1025.36
2017-01-25T02:16:19.099Z,1025.36
2017-01-25T02:17:30.066Z,1025.33
2017-01-25T02:18:40.762Z,1025.33
2017-01-25T02:19:51.478Z,1025.36
2017-01-25T02:21:02.231Z,1025.33
2017-01-25T02:22:12.981Z,1025.27
2017-01-25T02:23:23.699Z,1025.26
2017-01-25T02:24:34.841Z,1025.29
2017-01-25T02:25:45.533Z,1025.32
2017-01-25T02:26:56.258Z,1025.29
2017-01-25T02:28:06.983Z,1025.28
2017-01-25T02:29:18.080Z,1025.29
2017-01-25T02:30:28.817Z,1025.22
2017-01-25T02:31:39.562Z,1025.25
2017-01-25T02:32:50.268Z,1025.24
2017-01-25T02:34:01.009Z,1025.21
2017-01-25T02:35:12.123Z,1025.17
2017-01-25T02:36:23.226Z,1025.17
2017-01-25T02:37:33.970Z,1025.19
2017-01-25T02:38:44.724Z,1025.18
2017-01-25T02:39:55.439Z,1025.16
2017-01-25T02:41:06.164Z,1025.19
2017-01-25T02:42:16.910Z,1025.2
2017-01-25T02:43:27.631Z,1025.16
2017-01-25T02:44:38.371Z,1025.17
2017-01-25T02:45:49.147Z,1025.2
2017-01-25T02:46:59.866Z,1025.21
2017-01-25T02:48:10.566Z,1025.2
2017-01-25T02:49:21.278Z,1025.21
2017-01-25T02:50:32.003Z,1025.19
2017-01-25T02:51:42.717Z,1025.19
2017-01-25T02:52:53.688Z,1025.18
2017-01-25T02:54:04.418Z,1025.18
2017-01-25T02:55:15.139Z,1025.24
2017-01-25T02:56:25.862Z,1025.31
2017-01-25T02:57:36.596Z,1025.24
2017-01-25T02:58:47.307Z,1025.19
2017-01-25T02:59:58.038Z,1025.2
2017-01-25T03:01:08.743Z,1025.15
2017-01-25T03:02:19.463Z,1025.22
2017-01-25T03:03:30.189Z,1025.18
2017-01-25T03:04:41.184Z,1025.22
2017-01-25T03:05:51.926Z,1025.22
2017-01-25T03:07:02.668Z,1025.21
2017-01-25T03:08:13.448Z,1025.2
2017-01-25T03:09:24.182Z,1025.21
2017-01-25T03:10:34.909Z,1025.21
2017-01-25T03:11:45.634Z,1025.23
2017-01-25T03:12:56.356Z,1025.24
2017-01-25T03:14:07.080Z,1025.26
2017-01-25T03:15:17.789Z,1025.27
2017-01-25T03:16:28.487Z,1025.27
2017-01-25T03:17:39.236Z,1025.26
2017-01-25T03:18:49.936Z,1025.24
2017-01-25T03:20:00.670Z,1025.25
2017-01-25T03:21:11.380Z,1025.25
2017-01-25T03:22:22.091Z,1025.3
2017-01-25T03:23:32.819Z,1025.33
2017-01-25T03:24:43.534Z,1025.31
2017-01-25T03:25:54.286Z,1025.28
2017-01-25T03:27:05.032Z,1025.33
2017-01-25T03:28:15.780Z,1025.32
2017-01-25T03:29:26.514Z,1025.36
2017-01-25T03:30:37.241Z,1025.3
2017-01-25T03:31:47.981Z,1025.29
2017-01-25T03:32:58.714Z,1025.32
2017-01-25T03:34:09.451Z,1025.28
2017-01-25T03:35:20.176Z,1025.35
2017-01-25T03:36:30.915Z,1025.34
2017-01-25T03:37:41.622Z,1025.32
2017-01-25T03:38:52.364Z,1025.31
2017-01-25T03:40:03.302Z,1025.34
2017-01-25T03:41:14.016Z,1025.36
2017-01-25T03:42:24.756Z,1025.37
2017-01-25T03:43:35.476Z,1025.45
2017-01-25T03:44:46.190Z,1025.47
2017-01-25T03:45:56.912Z,1025.47
2017-01-25T03:47:07.604Z,1025.47
2017-01-25T03:48:18.324Z,1025.5
2017-01-25T03:49:29.056Z,1025.48
2017-01-25T03:50:39.775Z,1025.5
2017-01-25T03:51:50.478Z,1025.54
2017-01-25T03:53:01.191Z,1025.54
2017-01-25T03:54:12.280Z,1025.51
2017-01-25T03:55:23.007Z,1025.53
2017-01-25T03:56:33.700Z,1025.52
2017-01-25T03:57:44.702Z,1025.54
2017-01-25T03:58:55.418Z,1025.56
2017-01-25T04:00:06.546Z,1025.54
2017-01-25T04:01:17.280Z,1025.55
2017-01-25T04:02:28.001Z,1025.57
2017-01-25T04:03:38.722Z,1025.57
2017-01-25T04:04:49.446Z,1025.59
2017-01-25T04:06:00.164Z,1025.57
2017-01-25T04:07:10.893Z,1025.6
2017-01-25T04:08:21.636Z,1025.61
2017-01-25T04:09:32.360Z,1025.6
2017-01-25T04:10:43.087Z,1025.58
2017-01-25T04:11:53.829Z,1025.61
2017-01-25T04:13:04.548Z,1025.64
2017-01-25T04:14:15.264Z,1025.6
2017-01-25T04:15:26.010Z,1025.61
2017-01-25T04:16:36.732Z,1025.61
2017-01-25T04:17:47.481Z,1025.62
2017-01-25T04:18:58.203Z,1025.61
2017-01-25T04:20:08.926Z,1025.62
2017-01-25T04:21:19.916Z,1025.66
2017-01-25T04:22:30.661Z,1025.71
2017-01-25T04:23:41.403Z,1025.67
2017-01-25T04:24:52.133Z,1025.69
2017-01-25T04:26:02.879Z,1025.7
2017-01-25T04:27:13.953Z,1025.69
2017-01-25T04:28:24.670Z,1025.74
2017-01-25T04:29:35.394Z,1025.75
2017-01-25T04:30:46.130Z,1025.73
2017-01-25T04:31:56.856Z,1025.74
2017-01-25T04:33:07.572Z,1025.74
2017-01-25T04:34:18.293Z,1025.69
2017-01-25T04:35:29.018Z,1025.73
2017-01-25T04:36:39.765Z,1025.72
2017-01-25T04:37:50.505Z,1025.73
2017-01-25T04:39:01.215Z,1025.7
2017-01-25T04:40:11.932Z,1025.72
2017-01-25T04:41:22.651Z,1025.72
2017-01-25T04:42:33.376Z,1025.75
2017-01-25T04:43:44.123Z,1025.73
2017-01-25T04:44:54.857Z,1025.78
2017-01-25T04:46:05.556Z,1025.74
2017-01-25T04:47:16.282Z,1025.78
2017-01-25T04:48:27.005Z,1025.8
2017-01-25T04:49:37.745Z,1025.76
2017-01-25T04:50:48.694Z,1025.76
2017-01-25T04:51:59.437Z,1025.74
2017-01-25T04:53:10.178Z,1025.71
2017-01-25T04:54:20.886Z,1025.7
2017-01-25T04:55:31.602Z,1025.72
2017-01-25T04:56:42.325Z,1025.72
2017-01-25T04:57:53.066Z,1025.72
2017-01-25T04:59:03.809Z,1025.74
2017-01-25T05:00:14.540Z,1025.76
2017-01-25T05:01:25.287Z,1025.77
2017-01-25T05:02:36.271Z,1025.76
2017-01-25T05:03:46.967Z,1025.75
2017-01-25T05:04:57.717Z,1025.75
2017-01-25T05:06:08.443Z,1025.78
2017-01-25T05:07:19.163Z,1025.83
2017-01-25T05:08:29.863Z,1025.86
2017-01-25T05:09:40.603Z,1025.87
2017-01-25T05:10:51.329Z,1025.84
2017-01-25T05:12:02.069Z,1025.83
2017-01-25T05:13:12.811Z,1025.81
2017-01-25T05:14:23.532Z,1025.81
2017-01-25T05:15:34.262Z,1025.78
2017-01-25T05:16:44.985Z,1025.8
2017-01-25T05:17:55.695Z,1025.86
2017-01-25T05:19:06.424Z,1025.87
2017-01-25T05:20:17.398Z,1025.89
2017-01-25T05:21:28.118Z,1025.85
2017-01-25T05:22:38.853Z,1025.82
2017-01-25T05:23:49.579Z,1025.82
2017-01-25T05:25:00.307Z,1025.82
2017-01-25T05:26:11.028Z,1025.82
2017-01-25T05:27:21.767Z,1025.81
2017-01-25T05:28:32.491Z,1025.85
2017-01-25T05:29:43.205Z,1025.86
2017-01-25T05:30:53.910Z,1025.84
2017-01-25T05:32:04.633Z,1025.85
2017-01-25T05:33:15.378Z,1025.85
2017-01-25T05:34:26.093Z,1025.84
2017-01-25T05:35:36.817Z,1025.84
2017-01-25T05:36:47.538Z,1025.88
2017-01-25T05:37:58.258Z,1025.88
2017-01-25T05:39:08.983Z,1025.83
2017-01-25T05:40:19.729Z,1025.86
2017-01-25T05:41:30.442Z,1025.85
2017-01-25T05:42:41.170Z,1025.83
2017-01-25T05:43:52.264Z,1025.84
2017-01-25T05:45:02.980Z,1025.79
2017-01-25T05:46:13.723Z,1025.82
2017-01-25T05:47:24.426Z,1025.87
2017-01-25T05:48:35.127Z,1025.83
2017-01-25T05:49:46.096Z,1025.81
2017-01-25T05:50:56.834Z,1025.83
2017-01-25T05:52:07.580Z,1025.82
2017-01-25T05:53:18.305Z,1025.87
2017-01-25T05:54:29.027Z,1025.79
2017-01-25T05:55:39.766Z,1025.78
2017-01-25T05:56:50.473Z,1025.81
2017-01-25T05:58:01.191Z,1025.79
2017-01-25T05:59:11.940Z,1025.82
2017-01-25T06:00:22.675Z,1025.83
2017-01-25T06:01:33.650Z,1025.86
2017-01-25T06:02:44.352Z,1025.9
2017-01-25T06:03:55.087Z,1025.85
2017-01-25T06:05:05.796Z,1025.87
2017-01-25T06:06:16.529Z,1025.9
2017-01-25T06:07:27.229Z,1025.91
2017-01-25T06:08:37.977Z,1025.94
2017-01-25T06:09:48.692Z,1025.9
2017-01-25T06:10:59.399Z,1025.89
2017-01-25T06:12:10.497Z,1025.86
2017-01-25T06:13:21.212Z,1025.9
2017-01-25T06:14:31.930Z,1025.92
2017-01-25T06:15:42.634Z,1025.96
2017-01-25T06:16:53.373Z,1025.92
2017-01-25T06:18:04.090Z,1025.97
2017-01-25T06:19:15.101Z,1026.01
2017-01-25T06:20:25.835Z,1026.02
2017-01-25T06:21:36.586Z,1026
2017-01-25T06:22:47.339Z,1026.02
2017-01-25T06:23:58.477Z,1026.03
2017-01-25T06:25:09.201Z,1026.04
2017-01-25T06:26:19.915Z,1026.04
2017-01-25T06:27:30.665Z,1026.1
2017-01-25T06:28:41.355Z,1026.09
2017-01-25T06:29:52.081Z,1026.09
2017-01-25T06:31:02.803Z,1026.13
2017-01-25T06:32:13.528Z,1026.12
2017-01-25T06:33:24.237Z,1026.15
2017-01-25T06:34:34.970Z,1026.16
2017-01-25T06:35:45.708Z,1026.19
2017-01-25T06:36:56.729Z,1026.17
2017-01-25T06:38:07.858Z,1026.14
2017-01-25T06:39:18.599Z,1026.17
2017-01-25T06:40:29.337Z,1026.15
2017-01-25T06:41:40.063Z,1026.14
2017-01-25T06:42:50.781Z,1026.14
2017-01-25T06:44:01.513Z,1026.14
2017-01-25T06:45:12.251Z,1026.12
2017-01-25T06:46:22.949Z,1026.15
2017-01-25T06:47:33.675Z,1026.13
2017-01-25T06:48:44.397Z,1026.11
2017-01-25T06:49:55.114Z,1026.08
2017-01-25T06:51:05.838Z,1026.01
2017-01-25T06:52:16.577Z,1026.02
2017-01-25T06:53:27.273Z,1025.96
2017-01-25T06:54:37.981Z,1026
2017-01-25T06:55:48.727Z,1025.97
2017-01-25T06:56:59.469Z,1026
2017-01-25T06:58:10.188Z,1026.06
2017-01-25T06:59:20.928Z,1026.03
2017-01-25T07:00:31.920Z,1026.01
2017-01-25T07:01:42.645Z,1026.07
2017-01-25T07:02:53.370Z,1026.06
2017-01-25T07:04:04.091Z,1026.08
2017-01-25T07:05:14.812Z,1026.09
2017-01-25T07:06:25.528Z,1026.07
2017-01-25T07:07:36.258Z,1026.07
2017-01-25T07:08:46.979Z,1026.05
2017-01-25T07:09:57.724Z,1026.04
2017-01-25T07:11:08.442Z,1026.05
2017-01-25T07:12:19.191Z,1026.1
2017-01-25T07:13:29.963Z,1026.12
2017-01-25T07:14:40.680Z,1026.14
2017-01-25T07:15:51.427Z,1026.14
2017-01-25T07:17:02.175Z,1026.19
2017-01-25T07:18:13.175Z,1026.21
2017-01-25T07:19:23.894Z,1026.21
2017-01-25T07:20:34.655Z,1026.25
2017-01-25T07:21:45.377Z,1026.19
2017-01-25T07:22:56.106Z,1026.26
2017-01-25T07:24:06.844Z,1026.27
2017-01-25T07:25:17.596Z,1026.33
2017-01-25T07:26:28.316Z,1026.34
2017-01-25T07:27:39.004Z,1026.31
2017-01-25T07:28:49.710Z,1026.31
2017-01-25T07:30:00.404Z,1026.32
2017-01-25T07:31:11.117Z,1026.34
2017-01-25T07:32:21.815Z,1026.32
2017-01-25T07:33:32.563Z,1026.32
2017-01-25T07:34:43.269Z,1026.33
2017-01-25T07:35:54.034Z,1026.36
2017-01-25T07:37:04.805Z,1026.35
2017-01-25T07:38:15.546Z,1026.34
2017-01-25T07:39:26.252Z,1026.34
2017-01-25T07:40:36.989Z,1026.34
2017-01-25T07:41:48.017Z,1026.33
2017-01-25T07:42:58.752Z,1026.4
2017-01-25T07:44:09.485Z,1026.38
2017-01-25T07:45:20.227Z,1026.39
2017-01-25T07:46:30.960Z,1026.38
2017-01-25T07:47:41.690Z,1026.42
2017-01-25T07:48:52.431Z,1026.45
2017-01-25T07:50:03.140Z,1026.45
2017-01-25T07:51:14.277Z,1026.45
2017-01-25T07:52:24.995Z,1026.5
2017-01-25T07:53:35.691Z,1026.48
2017-01-25T07:54:47.320Z,1026.45
2017-01-25T07:55:58.044Z,1026.44
2017-01-25T07:57:08.772Z,1026.46
2017-01-25T07:58:19.510Z,1026.43
2017-01-25T07:59:30.479Z,1026.47
2017-01-25T08:00:41.224Z,1026.38
2017-01-25T08:01:51.923Z,1026.42
2017-01-25T08:03:02.642Z,1026.37
2017-01-25T08:04:13.362Z,1026.39
2017-01-25T08:05:24.059Z,1026.36
2017-01-25T08:06:34.804Z,1026.4
2017-01-25T08:07:45.528Z,1026.42
2017-01-25T08:08:56.267Z,1026.38
2017-01-25T08:10:06.992Z,1026.44
2017-01-25T08:11:17.689Z,1026.47
2017-01-25T08:12:28.412Z,1026.48
2017-01-25T08:13:39.130Z,1026.58
2017-01-25T08:14:49.855Z,1026.54
2017-01-25T08:16:00.591Z,1026.54
2017-01-25T08:17:11.294Z,1026.58
2017-01-25T08:18:22.013Z,1026.59
2017-01-25T08:19:32.755Z,1026.6
2017-01-25T08:20:43.487Z,1026.57
2017-01-25T08:21:54.205Z,1026.51
2017-01-25T08:23:04.951Z,1026.57
2017-01-25T08:24:15.689Z,1026.62
2017-01-25T08:25:26.422Z,1026.62
2017-01-25T08:26:37.154Z,1026.6
2017-01-25T08:27:47.852Z,1026.59
2017-01-25T08:28:58.599Z,1026.61
2017-01-25T08:30:09.322Z,1026.62
2017-01-25T08:31:20.040Z,1026.63
2017-01-25T08:32:30.744Z,1026.64
2017-01-25T08:33:41.486Z,1026.65
2017-01-25T08:34:52.200Z,1026.69
2017-01-25T08:36:02.907Z,1026.72
2017-01-25T08:37:13.623Z,1026.7
2017-01-25T08:38:24.372Z,1026.69
2017-01-25T08:39:35.104Z,1026.74
2017-01-25T08:40:46.090Z,1026.68
2017-01-25T08:41:56.801Z,1026.7
2017-01-25T08:43:07.503Z,1026.74
2017-01-25T08:44:18.249Z,1026.71
2017-01-25T08:45:28.953Z,1026.77
2017-01-25T08:46:39.688Z,1026.7
2017-01-25T08:47:50.394Z,1026.73
2017-01-25T08:49:01.137Z,1026.77
2017-01-25T08:50:11.884Z,1026.78
2017-01-25T08:51:22.619Z,1026.79
2017-01-25T08:52:33.342Z,1026.8
2017-01-25T08:53:44.044Z,1026.77
2017-01-25T08:54:54.784Z,1026.79
2017-01-25T08:56:05.477Z,1026.77
2017-01-25T08:57:16.223Z,1026.81
2017-01-25T08:58:27.194Z,1026.78
2017-01-25T08:59:37.897Z,1026.81
2017-01-25T09:00:48.637Z,1026.8
2017-01-25T09:01:59.369Z,1026.8
2017-01-25T09:03:10.110Z,1026.87
2017-01-25T09:04:20.840Z,1026.87
2017-01-25T09:05:31.581Z,1026.86
2017-01-25T09:06:42.295Z,1026.82
2017-01-25T09:07:53.022Z,1026.83
2017-01-25T09:09:03.741Z,1026.87
2017-01-25T09:10:14.458Z,1026.87
2017-01-25T09:11:25.229Z,1026.88
2017-01-25T09:12:35.921Z,1026.85
2017-01-25T09:13:46.670Z,1026.86
2017-01-25T09:14:57.374Z,1026.87
2017-01-25T09:16:08.110Z,1026.85
2017-01-25T09:17:18.817Z,1026.87
2017-01-25T09:18:29.554Z,1026.88
2017-01-25T09:19:40.251Z,1026.88
2017-01-25T09:20:51.368Z,1026.9
2017-01-25T09:22:02.094Z,1026.91
2017-01-25T09:23:12.822Z,1026.94
2017-01-25T09:24:23.572Z,1026.97
2017-01-25T09:25:34.302Z,1026.98
2017-01-25T09:26:45.012Z,1026.98
2017-01-25T09:27:55.752Z,1026.96
2017-01-25T09:29:06.469Z,1026.99
2017-01-25T09:30:17.248Z,1027.01
2017-01-25T09:31:27.992Z,1027.01
2017-01-25T09:32:38.732Z,1027
2017-01-25T09:33:49.452Z,1027.06
2017-01-25T09:35:00.181Z,1027.02
2017-01-25T09:36:10.956Z,1027.06
2017-01-25T09:37:22.066Z,1027.08
2017-01-25T09:38:32.787Z,1027.07
2017-01-25T09:39:43.783Z,1027.07
2017-01-25T09:40:54.512Z,1027.1
2017-01-25T09:42:05.254Z,1027.09
2017-01-25T09:43:15.997Z,1027.06
2017-01-25T09:44:26.750Z,1027.09
2017-01-25T09:45:37.492Z,1027.08
2017-01-25T09:46:48.194Z,1027.07
2017-01-25T09:47:58.905Z,1027.08
2017-01-25T09:49:09.633Z,1027.09
2017-01-25T09:50:20.401Z,1027.07
2017-01-25T09:51:31.130Z,1027.08
2017-01-25T09:52:41.873Z,1027.05
2017-01-25T09:53:52.590Z,1027.11
2017-01-25T09:55:03.339Z,1027.11
2017-01-25T09:56:14.077Z,1027.07
2017-01-25T09:57:24.824Z,1027.09
2017-01-25T09:58:35.555Z,1027.12
2017-01-25T09:59:46.288Z,1027.08
2017-01-25T10:00:56.995Z,1027.08
2017-01-25T10:02:07.717Z,1027.12
2017-01-25T10:03:18.433Z,1027.14
2017-01-25T10:04:29.181Z,1027.15
2017-01-25T10:05:39.900Z,1027.14
2017-01-25T10:06:50.650Z,1027.14
2017-01-25T10:08:01.372Z,1027.1
2017-01-25T10:09:12.110Z,1027.14
2017-01-25T10:10:22.855Z,1027.1
2017-01-25T10:11:33.583Z,1027.12
2017-01-25T10:12:44.305Z,1027.1
2017-01-25T10:13:55.024Z,1027.09
2017-01-25T10:15:05.738Z,1027.09
2017-01-25T10:16:16.486Z,1027.06
2017-01-25T10:17:27.202Z,1027.06
2017-01-25T10:18:37.911Z,1027.02
2017-01-25T10:19:48.646Z,1027
2017-01-25T10:20:59.369Z,1027.02
2017-01-25T10:22:10.124Z,1027.03
2017-01-25T10:23:20.847Z,1027.02
2017-01-25T10:24:31.578Z,1026.95
2017-01-25T10:25:42.306Z,1026.96
2017-01-25T10:26:53.019Z,1026.98
2017-01-25T10:28:03.715Z,1026.96
2017-01-25T10:29:14.441Z,1026.99
2017-01-25T10:30:25.169Z,1026.97
2017-01-25T10:31:35.890Z,1026.93
2017-01-25T10:32:46.637Z,1026.97
2017-01-25T10:33:57.382Z,1026.98
2017-01-25T10:35:08.099Z,1026.96
2017-01-25T10:36:18.851Z,1027
2017-01-25T10:37:29.593Z,1027.04
2017-01-25T10:38:40.583Z,1026.96
2017-01-25T10:39:51.312Z,1026.94
2017-01-25T10:41:02.036Z,1026.91
2017-01-25T10:42:12.751Z,1026.94
2017-01-25T10:43:23.514Z,1026.87
2017-01-25T10:44:34.242Z,1026.91
2017-01-25T10:45:44.992Z,1026.93
2017-01-25T10:46:55.716Z,1026.9
2017-01-25T10:48:06.433Z,1026.91
2017-01-25T10:49:17.170Z,1026.93
2017-01-25T10:50:27.897Z,1026.89
2017-01-25T10:51:38.596Z,1026.91
2017-01-25T10:52:49.318Z,1026.93
2017-01-25T10:54:00.037Z,1026.9
2017-01-25T10:55:10.756Z,1026.87
2017-01-25T10:56:21.473Z,1026.86
2017-01-25T10:57:32.216Z,1026.89
2017-01-25T10:58:42.912Z,1026.86
2017-01-25T10:59:53.647Z,1026.85
2017-01-25T11:01:04.362Z,1026.87
2017-01-25T11:02:15.107Z,1026.85
2017-01-25T11:03:25.832Z,1026.81
2017-01-25T11:04:36.591Z,1026.78
2017-01-25T11:05:47.297Z,1026.79
2017-01-25T11:06:58.040Z,1026.8
2017-01-25T11:08:08.789Z,1026.79
2017-01-25T11:09:19.514Z,1026.78
2017-01-25T11:10:30.257Z,1026.77
2017-01-25T11:11:41.003Z,1026.75
2017-01-25T11:12:51.749Z,1026.77
2017-01-25T11:14:02.484Z,1026.72
2017-01-25T11:15:13.180Z,1026.72
2017-01-25T11:16:23.914Z,1026.73
2017-01-25T11:17:34.659Z,1026.73
2017-01-25T11:18:45.376Z,1026.69
2017-01-25T11:19:56.373Z,1026.72
2017-01-25T11:21:07.070Z,1026.7
2017-01-25T11:22:17.770Z,1026.69
2017-01-25T11:23:28.513Z,1026.69
2017-01-25T11:24:39.231Z,1026.73
2017-01-25T11:25:49.973Z,1026.73
2017-01-25T11:27:00.701Z,1026.75
2017-01-25T11:28:11.418Z,1026.74
2017-01-25T11:29:22.143Z,1026.75
2017-01-25T11:30:32.885Z,1026.74
2017-01-25T11:31:43.628Z,1026.74
2017-01-25T11:32:54.345Z,1026.69
2017-01-25T11:34:05.052Z,1026.69
2017-01-25T11:35:15.790Z,1026.68
2017-01-25T11:36:26.524Z,1026.73
2017-01-25T11:37:37.512Z,1026.69
2017-01-25T11:38:48.266Z,1026.67
2017-01-25T11:39:58.997Z,1026.7
2017-01-25T11:41:09.705Z,1026.64
2017-01-25T11:42:20.423Z,1026.64
2017-01-25T11:43:31.163Z,1026.64
2017-01-25T11:44:41.913Z,1026.61
2017-01-25T11:45:52.655Z,1026.62
2017-01-25T11:47:03.396Z,1026.6
2017-01-25T11:48:14.099Z,1026.62
2017-01-25T11:49:24.818Z,1026.6
2017-01-25T11:50:35.566Z,1026.56
2017-01-25T11:51:46.289Z,1026.61
2017-01-25T11:52:57.009Z,1026.61
2017-01-25T11:54:07.750Z,1026.62
2017-01-25T11:55:18.473Z,1026.57
2017-01-25T11:56:29.226Z,1026.63
2017-01-25T11:57:39.968Z,1026.6
2017-01-25T11:58:50.710Z,1026.57
2017-01-25T12:00:01.422Z,1026.58
2017-01-25T12:01:12.792Z,1026.59
2017-01-25T12:02:23.506Z,1026.54
2017-01-25T12:03:34.245Z,1026.51
2017-01-25T12:04:44.994Z,1026.56
2017-01-25T12:05:55.722Z,1026.53
2017-01-25T12:07:06.454Z,1026.55
2017-01-25T12:08:17.179Z,1026.54
2017-01-25T12:09:27.906Z,1026.53
2017-01-25T12:10:38.645Z,1026.58
2017-01-25T12:11:49.380Z,1026.54
2017-01-25T12:13:00.117Z,1026.51
2017-01-25T12:14:10.834Z,1026.54
2017-01-25T12:15:21.566Z,1026.55
2017-01-25T12:16:32.305Z,1026.45
2017-01-25T12:17:43.028Z,1026.47
2017-01-25T12:18:53.776Z,1026.43
2017-01-25T12:20:04.538Z,1026.45
2017-01-25T12:21:15.264Z,1026.45
2017-01-25T12:22:25.976Z,1026.48
2017-01-25T12:23:36.711Z,1026.43
2017-01-25T12:24:47.434Z,1026.42
2017-01-25T12:25:58.164Z,1026.39
2017-01-25T12:27:08.896Z,1026.38
2017-01-25T12:28:19.660Z,1026.37
2017-01-25T12:29:30.364Z,1026.3
2017-01-25T12:30:41.086Z,1026.32
2017-01-25T12:31:51.805Z,1026.28
2017-01-25T12:33:02.525Z,1026.25
2017-01-25T12:34:13.263Z,1026.3
2017-01-25T12:35:23.968Z,1026.34
2017-01-25T12:36:34.692Z,1026.3
2017-01-25T12:37:45.430Z,1026.27
2017-01-25T12:38:56.173Z,1026.31
2017-01-25T12:40:06.922Z,1026.3
2017-01-25T12:41:17.636Z,1026.25
2017-01-25T12:42:28.361Z,1026.28
2017-01-25T12:43:39.092Z,1026.29
2017-01-25T12:44:49.833Z,1026.28
2017-01-25T12:46:00.548Z,1026.31
2017-01-25T12:47:11.302Z,1026.3
2017-01-25T12:48:22.019Z,1026.28
2017-01-25T12:49:32.738Z,1026.27
2017-01-25T12:50:43.457Z,1026.32
2017-01-25T12:51:54.183Z,1026.29
2017-01-25T12:53:04.884Z,1026.32
2017-01-25T12:54:15.645Z,1026.32
2017-01-25T12:55:26.392Z,1026.28
2017-01-25T12:56:37.141Z,1026.29
2017-01-25T12:57:47.858Z,1026.3
2017-01-25T12:58:58.584Z,1026.3
2017-01-25T13:00:09.307Z,1026.3
2017-01-25T13:01:20.068Z,1026.28
2017-01-25T13:02:30.764Z,1026.28
2017-01-25T13:03:41.521Z,1026.27
2017-01-25T13:04:52.255Z,1026.26
2017-01-25T13:06:02.988Z,1026.23
2017-01-25T13:07:13.705Z,1026.18
2017-01-25T13:08:24.455Z,1026.23
2017-01-25T13:09:35.172Z,1026.28
2017-01-25T13:10:45.872Z,1026.27
2017-01-25T13:11:56.610Z,1026.24
2017-01-25T13:13:07.314Z,1026.22
2017-01-25T13:14:18.056Z,1026.2
2017-01-25T13:15:28.798Z,1026.24
2017-01-25T13:16:39.553Z,1026.25
2017-01-25T13:17:50.278Z,1026.22
2017-01-25T13:19:00.998Z,1026.24
2017-01-25T13:20:11.728Z,1026.21
2017-01-25T13:21:22.433Z,1026.18
2017-01-25T13:22:33.172Z,1026.21
2017-01-25T13:23:43.893Z,1026.17
2017-01-25T13:24:54.625Z,1026.2
2017-01-25T13:26:05.360Z,1026.19
2017-01-25T13:27:16.088Z,1026.22
2017-01-25T13:28:26.851Z,1026.2
2017-01-25T13:29:37.584Z,1026.18
2017-01-25T13:30:48.306Z,1026.17
2017-01-25T13:31:59.051Z,1026.21
2017-01-25T13:33:09.792Z,1026.25
2017-01-25T13:34:20.518Z,1026.23
2017-01-25T13:35:31.239Z,1026.19
2017-01-25T13:36:41.973Z,1026.22
2017-01-25T13:37:52.677Z,1026.2
2017-01-25T13:39:03.420Z,1026.18
2017-01-25T13:40:14.170Z,1026.2
2017-01-25T13:41:24.887Z,1026.17
2017-01-25T13:42:35.618Z,1026.21
2017-01-25T13:43:46.351Z,1026.22
2017-01-25T13:44:57.084Z,1026.25
2017-01-25T13:46:07.807Z,1026.22
2017-01-25T13:47:18.557Z,1026.24
2017-01-25T13:48:29.295Z,1026.25
2017-01-25T13:49:40.015Z,1026.26
2017-01-25T13:50:50.727Z,1026.28
2017-01-25T13:52:01.847Z,1026.28
2017-01-25T13:53:12.554Z,1026.3
2017-01-25T13:54:23.276Z,1026.31
2017-01-25T13:55:34.022Z,1026.37
2017-01-25T13:56:44.794Z,1026.38
2017-01-25T13:57:55.536Z,1026.4
2017-01-25T13:59:06.532Z,1026.38
2017-01-25T14:00:17.257Z,1026.4
2017-01-25T14:01:27.970Z,1026.39
2017-01-25T14:02:38.702Z,1026.38
2017-01-25T14:03:49.412Z,1026.41
2017-01-25T14:05:00.156Z,1026.45
2017-01-25T14:06:10.883Z,1026.45
2017-01-25T14:07:21.629Z,1026.41
2017-01-25T14:08:32.376Z,1026.39
2017-01-25T14:09:43.099Z,1026.39
2017-01-25T14:10:53.839Z,1026.38
2017-01-25T14:12:04.565Z,1026.34
2017-01-25T14:13:15.283Z,1026.39
2017-01-25T14:14:26.010Z,1026.4
2017-01-25T14:15:36.743Z,1026.38
2017-01-25T14:16:47.714Z,1026.41
2017-01-25T14:17:58.470Z,1026.41
2017-01-25T14:19:09.168Z,1026.38